Time;durP1;ratioP1;P1;durP2;ratioP2;P2;SDS_P1;SDS_P2;PMS_P1;PMS_P2;Temp;Humidity;BMP_temperature;BMP_pressure;BME280_temperature;BME280_humidity;BME280_pressure;Samples;Min_cycle;Max_cycle;Signal;HPM_P1;HPM_P2
2023/05/23 00:01:05;;;;;;;24.95;17.35;;;13.80;99.90;;;;;;5023354;28;20532;-75
2023/05/23 00:03:31;;;;;;;24.02;16.77;;;13.70;99.90;;;;;;5008701;28;20048;-76
2023/05/23 00:05:58;;;;;;;22.55;16.20;;;13.70;99.90;;;;;;5027338;28;20029;-75
2023/05/23 00:08:24;;;;;;;23.48;14.77;;;13.70;99.90;;;;;;5026930;28;20120;-75
2023/05/23 00:10:50;;;;;;;19.27;15.05;;;13.70;99.90;;;;;;5042152;28;20542;-76
2023/05/23 00:13:16;;;;;;;23.23;14.48;;;13.60;99.90;;;;;;5029012;28;20041;-76
2023/05/23 00:15:42;;;;;;;18.25;13.45;;;13.60;99.90;;;;;;5012501;28;20107;-75
2023/05/23 00:18:10;;;;;;;16.85;14.15;;;13.70;99.90;;;;;;5057913;28;20045;-75
2023/05/23 00:20:36;;;;;;;18.35;15.15;;;13.70;99.90;;;;;;5026876;28;20499;-74
2023/05/23 00:23:03;;;;;;;21.88;14.90;;;13.60;99.90;;;;;;5025541;28;20134;-74
2023/05/23 00:25:32;;;;;;;21.45;15.35;;;13.70;99.90;;;;;;5026769;28;20041;-74
2023/05/23 00:27:59;;;;;;;20.02;15.20;;;13.70;99.90;;;;;;5025119;28;20121;-74
2023/05/23 00:30:26;;;;;;;22.95;16.27;;;13.60;99.90;;;;;;5027182;28;20037;-75
2023/05/23 00:32:53;;;;;;;26.48;17.48;;;13.60;99.90;;;;;;5025858;28;20420;-75
2023/05/23 00:35:22;;;;;;;29.73;18.85;;;13.60;99.90;;;;;;5027376;28;20053;-74
2023/05/23 00:37:50;;;;;;;28.42;17.02;;;13.60;99.90;;;;;;5026097;28;20052;-74
2023/05/23 00:40:17;;;;;;;32.15;20.15;;;13.50;99.90;;;;;;5026540;28;20108;-74
2023/05/23 00:42:43;;;;;;;30.80;20.33;;;13.60;99.90;;;;;;5024803;28;20124;-73
2023/05/23 00:45:11;;;;;;;29.63;20.42;;;13.60;99.90;;;;;;5026250;28;20171;-73
2023/05/23 00:47:38;;;;;;;29.50;20.15;;;13.50;99.90;;;;;;5057278;28;20182;-74
2023/05/23 00:50:09;;;;;;;25.95;18.75;;;13.50;99.90;;;;;;5058285;28;20428;-74
2023/05/23 00:52:35;;;;;;;25.23;18.35;;;13.50;99.90;;;;;;5043940;28;20156;-73
2023/05/23 00:55:01;;;;;;;25.25;17.17;;;13.50;99.90;;;;;;5029606;28;20039;-74
2023/05/23 00:57:27;;;;;;;21.70;15.57;;;13.50;99.90;;;;;;5058041;28;20489;-73
2023/05/23 00:59:53;;;;;;;20.27;14.73;;;13.50;99.90;;;;;;5030982;28;20040;-73
2023/05/23 01:02:20;;;;;;;16.58;12.88;;;13.40;99.90;;;;;;5029354;28;20069;-73
2023/05/23 01:04:53;;;;;;;18.80;13.95;;;13.40;99.90;;;;;;5030154;28;20032;-73
2023/05/23 01:07:19;;;;;;;17.90;14.02;;;13.40;99.90;;;;;;5060998;28;20121;-73
2023/05/23 01:09:45;;;;;;;16.60;12.15;;;13.40;99.90;;;;;;5065491;28;20041;-73
2023/05/23 01:12:37;;;;;;;12.70;10.93;;;13.40;99.90;;;;;;5062875;28;20041;-73
2023/05/23 01:15:07;;;;;;;11.82;9.77;;;13.40;99.90;;;;;;5029225;28;20361;-73
2023/05/23 01:18:04;;;;;;;12.40;10.52;;;13.30;99.90;;;;;;5026352;28;20554;-73
2023/05/23 01:20:55;;;;;;;13.63;10.75;;;13.30;99.90;;;;;;5029922;28;20049;-74
2023/05/23 01:23:58;;;;;;;15.45;10.05;;;13.30;99.90;;;;;;5019405;28;20052;-73
2023/05/23 01:27:00;;;;;;;11.40;10.20;;;13.30;99.90;;;;;;5066786;28;20397;-73
2023/05/23 01:29:33;;;;;;;16.08;12.35;;;13.30;99.90;;;;;;5033164;28;20041;-73
2023/05/23 01:32:00;;;;;;;19.90;14.40;;;13.20;99.90;;;;;;5032511;28;20044;-73
2023/05/23 01:34:27;;;;;;;20.02;13.45;;;13.30;99.90;;;;;;5066369;28;20032;-72
2023/05/23 01:36:56;;;;;;;24.70;14.77;;;13.30;99.90;;;;;;5032628;28;20048;-72
2023/05/23 01:39:22;;;;;;;19.55;12.77;;;13.30;99.90;;;;;;5033211;28;20039;-73
2023/05/23 01:41:50;;;;;;;24.88;12.68;;;13.20;99.90;;;;;;5031698;28;20115;-72
2023/05/23 01:44:16;;;;;;;20.85;11.65;;;13.20;99.90;;;;;;5066405;28;20033;-72
2023/05/23 01:46:43;;;;;;;24.75;13.02;;;13.10;99.90;;;;;;5029184;28;20542;-72
2023/05/23 01:49:12;;;;;;;21.00;11.25;;;13.10;99.90;;;;;;5049685;28;20055;-72
2023/05/23 01:51:39;;;;;;;19.55;11.43;;;13.20;99.90;;;;;;5032403;28;20051;-72
2023/05/23 01:54:05;;;;;;;24.65;12.40;;;13.10;99.90;;;;;;5032436;28;20037;-73
2023/05/23 01:56:32;;;;;;;25.48;11.98;;;13.10;99.90;;;;;;5032811;28;20041;-73
2023/05/23 01:58:57;;;;;;;23.73;12.60;;;13.10;99.90;;;;;;5034568;28;20044;-73
2023/05/23 02:01:23;;;;;;;22.67;12.57;;;13.00;99.90;;;;;;5033016;28;20037;-72
2023/05/23 02:03:49;;;;;;;25.83;13.30;;;13.00;99.90;;;;;;5031574;28;20454;-72
2023/05/23 02:06:15;;;;;;;25.95;12.93;;;13.00;99.90;;;;;;5032974;28;20041;-73
2023/05/23 02:08:40;;;;;;;27.38;12.60;;;12.90;99.90;;;;;;5066099;28;20032;-73
2023/05/23 02:11:07;;;;;;;25.33;14.05;;;12.90;99.90;;;;;;5033224;28;20045;-73
2023/05/23 02:13:33;;;;;;;26.70;12.75;;;12.90;99.90;;;;;;5031797;28;20064;-73
2023/05/23 02:15:59;;;;;;;28.08;14.07;;;12.80;99.90;;;;;;5064300;28;20045;-73
2023/05/23 02:18:28;;;;;;;25.63;13.15;;;12.80;99.90;;;;;;5044867;28;20041;-73
2023/05/23 02:20:55;;;;;;;27.48;13.75;;;12.80;99.90;;;;;;5045944;28;20059;-73
2023/05/23 02:23:21;;;;;;;24.55;13.90;;;12.80;99.90;;;;;;5030972;28;20534;-73
2023/05/23 02:25:47;;;;;;;32.13;14.45;;;12.70;99.90;;;;;;5032228;28;20052;-73
2023/05/23 02:28:13;;;;;;;28.60;14.10;;;12.70;99.90;;;;;;5030489;28;20040;-73
2023/05/23 02:30:39;;;;;;;28.42;13.43;;;12.70;99.90;;;;;;5066369;28;20127;-73
2023/05/23 02:33:05;;;;;;;25.30;14.73;;;12.60;99.90;;;;;;5061668;28;20029;-73
2023/05/23 02:35:31;;;;;;;31.58;13.73;;;12.60;99.90;;;;;;5031595;28;21216;-73
2023/05/23 02:37:57;;;;;;;30.50;13.18;;;12.60;99.90;;;;;;5032422;28;20040;-73
2023/05/23 02:40:23;;;;;;;28.30;13.95;;;12.60;99.90;;;;;;5032796;28;20047;-73
2023/05/23 02:42:50;;;;;;;28.42;15.10;;;12.50;99.90;;;;;;5030321;28;20515;-73
2023/05/23 02:45:16;;;;;;;28.02;14.20;;;12.50;99.90;;;;;;5065871;28;20064;-73
2023/05/23 02:47:42;;;;;;;32.55;14.65;;;12.50;99.90;;;;;;5028787;28;20405;-73
2023/05/23 02:50:09;;;;;;;27.40;14.57;;;12.50;99.90;;;;;;5031011;28;20060;-73
2023/05/23 02:52:35;;;;;;;23.88;12.00;;;12.40;99.90;;;;;;5031062;28;20110;-73
2023/05/23 02:55:01;;;;;;;27.73;12.95;;;12.50;99.90;;;;;;5048387;28;20045;-73
2023/05/23 02:57:27;;;;;;;27.45;12.90;;;12.40;99.90;;;;;;5030571;28;20063;-73
2023/05/23 02:59:52;;;;;;;25.60;13.70;;;12.40;99.90;;;;;;5031805;28;20049;-73
2023/05/23 03:02:18;;;;;;;23.98;11.25;;;12.50;99.90;;;;;;5014658;28;20036;-72
2023/05/23 03:04:44;;;;;;;31.13;13.48;;;12.40;99.90;;;;;;5063764;28;20128;-73
2023/05/23 03:07:11;;;;;;;31.83;12.95;;;12.40;99.90;;;;;;5029218;28;20037;-73
2023/05/23 03:09:37;;;;;;;25.83;11.55;;;12.30;99.90;;;;;;5035606;28;20505;-73
2023/05/23 03:12:03;;;;;;;26.02;11.75;;;12.30;99.90;;;;;;5031469;28;20041;-74
2023/05/23 03:14:29;;;;;;;29.50;11.52;;;12.30;99.90;;;;;;5031656;28;20043;-73
2023/05/23 03:16:55;;;;;;;25.88;10.68;;;12.30;99.90;;;;;;5030974;28;20045;-73
2023/05/23 03:19:20;;;;;;;19.23;8.95;;;12.20;99.90;;;;;;5033150;28;20045;-73
2023/05/23 03:21:46;;;;;;;25.33;10.40;;;12.20;99.90;;;;;;5029087;28;20049;-72
2023/05/23 03:24:12;;;;;;;24.77;10.73;;;12.20;99.90;;;;;;5032746;28;20409;-73
2023/05/23 03:26:37;;;;;;;24.15;9.70;;;12.20;99.90;;;;;;5030794;28;20566;-72
2023/05/23 03:29:03;;;;;;;21.35;9.85;;;12.20;99.90;;;;;;5030947;28;20056;-73
2023/05/23 03:31:29;;;;;;;16.20;8.57;;;12.20;99.90;;;;;;5048758;28;20033;-72
2023/05/23 03:33:55;;;;;;;23.85;9.45;;;12.20;99.90;;;;;;5030371;28;20503;-73
2023/05/23 03:36:24;;;;;;;24.55;10.20;;;12.20;99.90;;;;;;5030430;28;20420;-72
2023/05/23 03:38:51;;;;;;;24.08;10.48;;;12.20;99.90;;;;;;5062001;28;20045;-73
2023/05/23 03:41:17;;;;;;;28.10;9.88;;;12.20;99.90;;;;;;5044248;28;20033;-72
2023/05/23 03:43:43;;;;;;;24.95;10.85;;;12.20;99.90;;;;;;5028760;28;20141;-73
2023/05/23 03:46:09;;;;;;;22.85;9.68;;;12.20;99.90;;;;;;5062454;28;20565;-73
2023/05/23 03:48:35;;;;;;;21.73;9.77;;;12.20;99.90;;;;;;5029444;28;20122;-73
2023/05/23 03:51:01;;;;;;;21.15;10.15;;;12.20;99.90;;;;;;5030391;28;20123;-73
2023/05/23 03:53:27;;;;;;;27.17;10.13;;;12.20;99.90;;;;;;5059823;28;20049;-73
2023/05/23 03:55:53;;;;;;;21.75;9.32;;;12.20;99.90;;;;;;5062754;28;20049;-74
2023/05/23 03:58:19;;;;;;;23.13;9.00;;;12.20;99.90;;;;;;5023904;28;20045;-73
2023/05/23 04:00:46;;;;;;;25.27;9.73;;;12.20;99.90;;;;;;5032738;28;20037;-74
2023/05/23 04:03:14;;;;;;;22.77;9.20;;;12.20;99.90;;;;;;5028044;28;20041;-73
2023/05/23 04:05:40;;;;;;;22.58;8.98;;;12.20;99.90;;;;;;5030579;28;20515;-73
2023/05/23 04:08:07;;;;;;;20.02;8.18;;;12.20;99.90;;;;;;5031749;28;20049;-74
2023/05/23 04:10:32;;;;;;;25.40;9.18;;;12.10;99.90;;;;;;5015147;28;20033;-74
2023/05/23 04:12:58;;;;;;;17.70;8.02;;;12.20;99.90;;;;;;5028391;28;20114;-73
2023/05/23 04:15:24;;;;;;;23.20;7.72;;;12.10;99.90;;;;;;5032027;28;20132;-74
2023/05/23 04:17:50;;;;;;;18.13;7.65;;;12.20;99.90;;;;;;5026857;28;20115;-73
2023/05/23 04:20:16;;;;;;;23.13;7.90;;;12.10;99.90;;;;;;5062293;28;20437;-73
2023/05/23 04:22:42;;;;;;;20.05;7.43;;;12.10;99.90;;;;;;5028855;28;20047;-73
2023/05/23 04:25:08;;;;;;;24.88;7.88;;;12.10;99.90;;;;;;5046579;28;20496;-73
2023/05/23 04:27:34;;;;;;;22.20;6.93;;;12.10;99.90;;;;;;5025770;28;20131;-73
2023/05/23 04:30:00;;;;;;;21.95;7.13;;;12.10;99.90;;;;;;5030105;28;20537;-73
2023/05/23 04:32:26;;;;;;;23.17;6.65;;;12.10;99.90;;;;;;5029403;28;20128;-73
2023/05/23 04:34:52;;;;;;;19.42;6.13;;;12.00;99.90;;;;;;5062241;28;20405;-75
2023/05/23 04:37:24;;;;;;;18.23;5.43;;;12.00;99.90;;;;;;5031036;28;20475;-74
2023/05/23 04:39:51;;;;;;;15.63;5.57;;;12.00;99.90;;;;;;5063491;28;20120;-74
2023/05/23 04:42:23;;;;;;;14.13;5.25;;;11.90;99.90;;;;;;5062727;28;20041;-73
2023/05/23 04:44:49;;;;;;;16.33;5.30;;;11.90;99.90;;;;;;5030436;28;20106;-72
2023/05/23 04:47:15;;;;;;;20.95;5.90;;;11.90;99.90;;;;;;5027994;28;20041;-73
2023/05/23 04:49:41;;;;;;;19.52;6.25;;;11.90;99.90;;;;;;5031044;28;20044;-73
2023/05/23 04:52:07;;;;;;;16.00;6.05;;;11.90;99.90;;;;;;5030439;28;20119;-73
2023/05/23 04:54:32;;;;;;;14.65;6.22;;;11.90;99.90;;;;;;5045087;28;20041;-73
2023/05/23 04:56:58;;;;;;;15.77;6.30;;;11.90;99.90;;;;;;5029929;28;20128;-72
2023/05/23 04:59:24;;;;;;;21.85;6.80;;;11.90;99.90;;;;;;5033871;28;20076;-73
2023/05/23 05:01:50;;;;;;;14.93;5.53;;;11.90;99.90;;;;;;5045202;28;20090;-73
2023/05/23 05:04:16;;;;;;;14.65;5.85;;;11.90;99.90;;;;;;5066092;28;20072;-74
2023/05/23 05:06:41;;;;;;;15.90;6.45;;;11.90;99.90;;;;;;5034069;28;20032;-73
2023/05/23 05:09:07;;;;;;;13.77;5.10;;;11.80;99.90;;;;;;5035642;28;20045;-74
2023/05/23 05:11:33;;;;;;;17.52;6.35;;;11.80;99.90;;;;;;5050599;28;21590;-75
2023/05/23 05:13:58;;;;;;;15.38;5.90;;;11.80;99.90;;;;;;5032452;28;20043;-75
2023/05/23 05:16:25;;;;;;;13.50;6.30;;;11.80;99.90;;;;;;5033692;28;20037;-73
2023/05/23 05:18:50;;;;;;;16.40;5.85;;;11.70;99.90;;;;;;5031317;28;20068;-74
2023/05/23 05:21:16;;;;;;;19.75;7.68;;;11.80;99.90;;;;;;5031004;28;20571;-73
2023/05/23 05:23:42;;;;;;;22.00;7.15;;;11.70;99.90;;;;;;5031736;28;20033;-75
2023/05/23 05:26:08;;;;;;;18.23;7.18;;;11.70;99.90;;;;;;5034048;28;20040;-75
2023/05/23 05:28:34;;;;;;;21.17;6.80;;;11.70;99.90;;;;;;5032209;28;20052;-75
2023/05/23 05:31:03;;;;;;;17.98;7.53;;;11.70;99.90;;;;;;5049447;28;20033;-75
2023/05/23 05:33:34;;;;;;;19.45;8.25;;;11.60;99.90;;;;;;5032863;28;20068;-74
2023/05/23 05:36:05;;;;;;;23.35;7.55;;;11.60;99.90;;;;;;5032006;28;20533;-74
2023/05/23 05:38:31;;;;;;;20.98;7.45;;;11.50;99.90;;;;;;5033153;28;20041;-74
2023/05/23 05:40:56;;;;;;;18.17;7.07;;;11.50;99.90;;;;;;5066740;28;20137;-74
2023/05/23 05:43:22;;;;;;;22.27;8.40;;;11.50;99.90;;;;;;5047225;28;20041;-72
2023/05/23 05:45:48;;;;;;;18.85;8.10;;;11.40;99.90;;;;;;5033956;28;20052;-73
2023/05/23 05:48:13;;;;;;;19.63;7.70;;;11.40;99.90;;;;;;5032058;28;20041;-72
2023/05/23 05:50:39;;;;;;;19.05;7.07;;;11.30;99.90;;;;;;5033688;28;20493;-72
2023/05/23 05:53:06;;;;;;;16.48;6.95;;;11.30;99.90;;;;;;5065018;28;20075;-73
2023/05/23 05:55:33;;;;;;;19.23;6.75;;;11.30;99.90;;;;;;5031867;28;20142;-73
2023/05/23 05:57:58;;;;;;;18.05;6.43;;;11.30;99.90;;;;;;5064457;28;20044;-72
2023/05/23 06:00:24;;;;;;;20.23;5.82;;;11.30;99.90;;;;;;5043648;28;20040;-72
2023/05/23 06:02:50;;;;;;;12.63;5.30;;;11.30;99.90;;;;;;5030909;28;20597;-72
2023/05/23 06:05:16;;;;;;;12.18;6.20;;;11.20;99.90;;;;;;5033377;28;20041;-72
2023/05/23 06:07:43;;;;;;;12.48;5.45;;;11.30;99.90;;;;;;5065769;28;20041;-72
2023/05/23 06:10:11;;;;;;;19.55;7.07;;;11.20;99.90;;;;;;5032680;28;20052;-72
2023/05/23 06:12:37;;;;;;;12.40;5.30;;;11.30;99.90;;;;;;5015269;28;20055;-73
2023/05/23 06:15:04;;;;;;;11.30;5.95;;;11.30;99.90;;;;;;5014989;28;20041;-73
2023/05/23 06:17:30;;;;;;;11.95;5.40;;;11.30;99.90;;;;;;5031668;28;20044;-73
2023/05/23 06:19:56;;;;;;;14.00;6.20;;;11.40;99.90;;;;;;5033053;28;20175;-73
2023/05/23 06:22:21;;;;;;;13.90;5.85;;;11.40;99.90;;;;;;5033093;28;20507;-73
2023/05/23 06:24:47;;;;;;;12.73;4.88;;;11.40;99.90;;;;;;5032660;28;20131;-73
2023/05/23 06:27:13;;;;;;;12.20;4.57;;;11.40;99.90;;;;;;5032286;28;20041;-73
2023/05/23 06:29:39;;;;;;;14.73;5.60;;;11.40;99.90;;;;;;5034578;28;20136;-73
2023/05/23 06:32:05;;;;;;;18.63;6.30;;;11.40;99.90;;;;;;5064674;28;20289;-73
2023/05/23 06:34:31;;;;;;;13.70;5.57;;;11.40;99.90;;;;;;5033112;28;20404;-73
2023/05/23 06:36:56;;;;;;;12.18;5.03;;;11.40;99.90;;;;;;5032526;28;20124;-72
2023/05/23 06:39:22;;;;;;;13.82;6.20;;;11.40;99.90;;;;;;5033173;28;20043;-72
2023/05/23 06:41:48;;;;;;;10.90;3.88;;;11.40;99.90;;;;;;5030994;28;20044;-72
2023/05/23 06:44:14;;;;;;;17.10;4.47;;;11.30;99.90;;;;;;5031563;28;20041;-72
2023/05/23 06:46:44;;;;;;;16.20;4.55;;;11.30;99.90;;;;;;5048111;28;20040;-72
2023/05/23 06:49:09;;;;;;;16.55;5.18;;;11.40;99.90;;;;;;5032802;28;20120;-72
2023/05/23 06:51:35;;;;;;;15.73;4.60;;;11.40;99.90;;;;;;5032548;28;20131;-73
2023/05/23 06:54:01;;;;;;;13.07;4.70;;;11.40;99.90;;;;;;5048441;28;20055;-73
2023/05/23 06:56:26;;;;;;;16.65;4.95;;;11.40;99.90;;;;;;5065971;28;20040;-73
2023/05/23 06:58:52;;;;;;;14.68;4.72;;;11.50;99.90;;;;;;5032782;28;20467;-73
2023/05/23 07:01:18;;;;;;;12.70;4.28;;;11.50;99.90;;;;;;5016205;28;20049;-72
2023/05/23 07:03:44;;;;;;;12.85;3.63;;;11.50;99.90;;;;;;5031350;28;20056;-72
2023/05/23 07:06:11;;;;;;;16.30;3.80;;;11.50;99.90;;;;;;5032259;28;20040;-73
2023/05/23 07:08:37;;;;;;;10.93;3.90;;;11.50;99.90;;;;;;5030356;28;20048;-72
2023/05/23 07:11:05;;;;;;;14.07;4.05;;;11.50;99.90;;;;;;5032407;28;20028;-72
2023/05/23 07:13:31;;;;;;;13.95;3.80;;;11.50;99.90;;;;;;5061064;28;20049;-73
2023/05/23 07:15:57;;;;;;;16.38;4.22;;;11.50;99.90;;;;;;5048756;28;20041;-72
2023/05/23 07:18:23;;;;;;;15.43;3.70;;;11.50;99.90;;;;;;5030135;28;20102;-73
2023/05/23 07:20:48;;;;;;;14.93;3.45;;;11.60;99.90;;;;;;5031451;28;20128;-73
2023/05/23 07:23:15;;;;;;;10.15;3.50;;;11.60;99.90;;;;;;5064058;28;20513;-73
2023/05/23 07:25:41;;;;;;;14.00;3.38;;;11.70;99.90;;;;;;5032167;28;20036;-73
2023/05/23 07:28:08;;;;;;;14.25;3.80;;;11.70;99.90;;;;;;5030445;28;20044;-74
2023/05/23 07:30:34;;;;;;;17.90;4.43;;;11.80;99.90;;;;;;5065216;28;20040;-73
2023/05/23 07:32:59;;;;;;;16.95;3.42;;;11.90;99.90;;;;;;5064486;28;20037;-73
2023/05/23 07:35:25;;;;;;;18.35;3.53;;;11.90;99.90;;;;;;5031769;28;20115;-71
2023/05/23 07:37:52;;;;;;;17.33;3.78;;;11.90;99.90;;;;;;5031634;28;20037;-72
2023/05/23 07:40:18;;;;;;;14.70;3.10;;;12.10;99.90;;;;;;5031888;28;20393;-73
2023/05/23 07:42:44;;;;;;;13.85;3.38;;;12.30;99.90;;;;;;5029581;28;20047;-73
2023/05/23 07:45:10;;;;;;;19.45;4.65;;;12.30;99.90;;;;;;5031598;28;20128;-72
2023/05/23 07:47:36;;;;;;;16.13;3.95;;;12.30;99.90;;;;;;5027723;28;20045;-72
2023/05/23 07:50:02;;;;;;;22.15;5.10;;;12.30;99.90;;;;;;5031500;28;20048;-72
2023/05/23 07:52:31;;;;;;;14.65;3.35;;;12.20;99.90;;;;;;5031064;28;20558;-73
2023/05/23 07:54:58;;;;;;;17.90;4.47;;;12.10;99.90;;;;;;5031583;28;20033;-73
2023/05/23 07:57:24;;;;;;;18.02;3.35;;;12.00;99.90;;;;;;5061944;28;20124;-73
2023/05/23 07:59:51;;;;;;;11.18;3.15;;;12.00;99.90;;;;;;5031743;28;20041;-74
2023/05/23 08:02:17;;;;;;;11.10;2.60;;;12.00;99.90;;;;;;5030232;28;20056;-73
2023/05/23 08:04:44;;;;;;;12.68;2.95;;;12.00;99.90;;;;;;5031929;28;20420;-73
2023/05/23 08:07:10;;;;;;;13.35;3.25;;;12.00;99.90;;;;;;5030146;28;20041;-73
2023/05/23 08:09:37;;;;;;;15.88;3.50;;;12.10;99.90;;;;;;5031809;28;20136;-74
2023/05/23 08:12:03;;;;;;;19.30;3.70;;;12.20;99.90;;;;;;5012652;28;20048;-74
2023/05/23 08:14:28;;;;;;;18.33;3.60;;;12.20;99.90;;;;;;5059482;28;20041;-74
2023/05/23 08:16:54;;;;;;;22.48;4.13;;;12.30;99.90;;;;;;5045866;28;20040;-74
2023/05/23 08:19:20;;;;;;;12.88;2.92;;;12.30;99.90;;;;;;5031335;28;20068;-73
2023/05/23 08:21:46;;;;;;;14.60;3.45;;;12.30;99.90;;;;;;5030526;28;20044;-74
2023/05/23 08:24:12;;;;;;;17.85;3.67;;;12.30;99.90;;;;;;5031258;28;20103;-72
2023/05/23 08:26:38;;;;;;;13.00;2.75;;;12.40;99.90;;;;;;5047136;28;20037;-72
2023/05/23 08:29:09;;;;;;;17.95;3.15;;;12.60;99.90;;;;;;5014957;28;20041;-75
2023/05/23 08:31:34;;;;;;;15.73;3.47;;;12.70;99.90;;;;;;5031098;28;20049;-75
2023/05/23 08:34:00;;;;;;;15.48;3.05;;;12.90;99.90;;;;;;5034362;28;20037;-75
2023/05/23 08:36:26;;;;;;;11.93;2.55;;;13.00;99.90;;;;;;5035185;28;20142;-75
2023/05/23 08:38:51;;;;;;;17.67;3.60;;;13.30;99.90;;;;;;5033106;28;20048;-75
2023/05/23 08:41:22;;;;;;;15.80;4.57;;;13.40;99.90;;;;;;5053168;28;20529;-75
2023/05/23 08:43:48;;;;;;;16.77;3.10;;;13.70;99.90;;;;;;5052379;28;20041;-75
2023/05/23 08:46:15;;;;;;;13.77;3.05;;;14.10;99.90;;;;;;5034772;28;20205;-74
2023/05/23 08:48:42;;;;;;;16.80;3.40;;;14.50;99.90;;;;;;5015753;28;20055;-71
2023/05/23 08:51:11;;;;;;;12.68;3.00;;;14.80;99.90;;;;;;5031901;28;20048;-73
2023/05/23 08:53:39;;;;;;;14.55;3.42;;;15.00;99.90;;;;;;5018119;28;20124;-73
2023/05/23 08:56:06;;;;;;;18.75;4.07;;;14.70;99.90;;;;;;5034652;28;20081;-73
2023/05/23 08:58:34;;;;;;;16.52;3.33;;;14.50;99.90;;;;;;5066692;28;20546;-73
2023/05/23 09:01:00;;;;;;;18.92;4.00;;;14.40;99.90;;;;;;5034898;28;20496;-75
2023/05/23 09:03:26;;;;;;;15.52;3.40;;;14.40;99.90;;;;;;5017303;28;20072;-74
2023/05/23 09:05:56;;;;;;;12.32;3.78;;;14.50;99.90;;;;;;5034265;28;20400;-75
2023/05/23 09:08:25;;;;;;;13.00;3.85;;;14.50;99.90;;;;;;5032405;28;20044;-75
2023/05/23 09:10:52;;;;;;;12.20;3.50;;;14.50;99.90;;;;;;5031303;28;20056;-75
2023/05/23 09:13:19;;;;;;;17.98;3.85;;;14.70;99.90;;;;;;5034488;28;20123;-76
2023/05/23 09:15:58;;;;;;;14.27;3.58;;;14.90;99.90;;;;;;5034902;28;20560;-74
2023/05/23 09:18:37;;;;;;;16.23;3.78;;;15.10;99.90;;;;;;5034531;28;20041;-72
2023/05/23 09:21:03;;;;;;;19.80;3.95;;;15.40;99.90;;;;;;5030622;28;20131;-73
2023/05/23 09:23:33;;;;;;;12.88;3.65;;;15.90;99.90;;;;;;5034864;28;20465;-73
2023/05/23 09:26:03;;;;;;;12.48;4.30;;;16.20;99.90;;;;;;5034169;28;20041;-74
2023/05/23 09:28:30;;;;;;;11.10;3.17;;;16.20;99.90;;;;;;5033662;28;20053;-75
2023/05/23 09:31:03;;;;;;;16.55;3.70;;;16.00;99.90;;;;;;5066311;28;20045;-73
2023/05/23 09:33:39;;;;;;;12.73;4.13;;;15.80;99.90;;;;;;5034229;28;20413;-75
2023/05/23 09:36:08;;;;;;;14.30;3.22;;;15.50;99.90;;;;;;5034690;28;20049;-74
2023/05/23 09:38:41;;;;;;;18.05;3.65;;;15.30;99.90;;;;;;5037895;28;20404;-74
2023/05/23 09:41:07;;;;;;;13.25;3.40;;;15.50;99.90;;;;;;5066198;28;20536;-74
2023/05/23 09:43:33;;;;;;;11.85;3.28;;;15.80;99.90;;;;;;5032164;28;20637;-75
2023/05/23 09:46:12;;;;;;;11.32;2.97;;;16.20;99.90;;;;;;5034749;28;20041;-75
2023/05/23 09:48:38;;;;;;;14.38;3.28;;;16.20;99.90;;;;;;5034128;28;20396;-74
2023/05/23 09:51:05;;;;;;;14.15;3.40;;;15.90;99.90;;;;;;5034598;28;20045;-75
2023/05/23 09:53:31;;;;;;;14.32;3.22;;;15.60;99.90;;;;;;5047804;28;20464;-75
2023/05/23 09:55:59;;;;;;;11.23;3.20;;;15.70;99.90;;;;;;5034025;28;20037;-75
2023/05/23 09:58:27;;;;;;;14.95;2.97;;;15.50;99.90;;;;;;5017642;28;20186;-74
2023/05/23 10:01:02;;;;;;;14.70;4.07;;;15.70;99.90;;;;;;5033470;28;20069;-75
2023/05/23 10:03:34;;;;;;;12.07;2.90;;;16.20;99.90;;;;;;5030987;28;20487;-75
2023/05/23 10:06:09;;;;;;;9.32;2.55;;;16.50;99.90;;;;;;5033612;28;20047;-75
2023/05/23 10:08:42;;;;;;;13.70;3.15;;;16.40;99.90;;;;;;5030605;28;20095;-75
2023/05/23 10:11:15;;;;;;;13.70;3.17;;;16.40;99.90;;;;;;5034373;28;20039;-75
2023/05/23 10:13:43;;;;;;;12.52;2.88;;;16.00;99.90;;;;;;5030308;28;20036;-75
2023/05/23 10:16:46;;;;;;;10.38;2.83;;;15.70;99.90;;;;;;5063878;28;20048;-75
2023/05/23 10:19:41;;;;;;;15.43;3.00;;;15.70;99.90;;;;;;5068135;28;20417;-75
2023/05/23 10:22:10;;;;;;;10.52;2.38;;;16.00;99.90;;;;;;5012270;28;20599;-75
2023/05/23 10:24:36;;;;;;;12.43;3.17;;;16.10;99.90;;;;;;5034280;28;20528;-75
2023/05/23 10:27:02;;;;;;;16.48;3.60;;;16.00;99.90;;;;;;5032087;28;20056;-75
2023/05/23 10:29:29;;;;;;;12.65;3.05;;;15.80;99.90;;;;;;5034041;28;20037;-75
2023/05/23 10:31:56;;;;;;;11.40;2.60;;;15.60;99.90;;;;;;5032836;28;20698;-75
2023/05/23 10:34:41;;;;;;;11.60;2.55;;;15.70;99.90;;;;;;5034470;28;20069;-75
2023/05/23 10:37:11;;;;;;;9.88;2.20;;;15.70;99.90;;;;;;5033304;28;20109;-75
2023/05/23 10:40:10;;;;;;;12.60;2.90;;;15.70;99.90;;;;;;5034214;28;20494;-75
2023/05/23 10:42:53;;;;;;;11.13;2.70;;;16.00;99.90;;;;;;5031787;28;20509;-74
2023/05/23 10:45:23;;;;;;;11.18;2.58;;;16.30;99.90;;;;;;5065262;28;20535;-74
2023/05/23 10:47:52;;;;;;;15.88;3.03;;;16.30;99.90;;;;;;5064666;28;20412;-75
2023/05/23 10:50:33;;;;;;;13.60;3.60;;;15.80;99.90;;;;;;5033535;28;20456;-75
2023/05/23 10:53:01;;;;;;;12.85;3.25;;;15.60;99.90;;;;;;5033292;28;20397;-74
2023/05/23 10:55:31;;;;;;;16.70;3.58;;;15.30;99.90;;;;;;5032979;28;20116;-75
2023/05/23 10:58:21;;;;;;;13.88;3.10;;;15.40;99.90;;;;;;5016587;28;20033;-75
2023/05/23 11:01:01;;;;;;;14.18;2.85;;;15.70;99.90;;;;;;5034480;28;20459;-75
2023/05/23 11:03:33;;;;;;;16.48;2.90;;;16.30;99.90;;;;;;5030512;28;20037;-75
2023/05/23 11:06:00;;;;;;;14.02;3.05;;;16.50;99.90;;;;;;5063722;28;20082;-75
2023/05/23 11:08:28;;;;;;;16.15;3.65;;;16.30;99.90;;;;;;5065927;28;20124;-75
2023/05/23 11:11:02;;;;;;;9.88;2.50;;;16.20;99.90;;;;;;5030610;28;20492;-75
2023/05/23 11:13:54;;;;;;;17.23;3.70;;;16.40;99.90;;;;;;5031846;28;20040;-75
2023/05/23 11:16:24;;;;;;;10.52;2.70;;;16.30;99.90;;;;;;5031963;28;20128;-75
2023/05/23 11:18:50;;;;;;;14.95;3.22;;;16.40;99.90;;;;;;5063516;28;20396;-73
2023/05/23 11:21:16;;;;;;;12.38;3.00;;;16.40;99.90;;;;;;5031070;28;20052;-75
2023/05/23 11:23:42;;;;;;;13.25;3.33;;;16.10;99.90;;;;;;5048177;28;20045;-75
2023/05/23 11:26:30;;;;;;;9.88;2.70;;;15.80;99.90;;;;;;5032322;28;20298;-75
2023/05/23 11:28:58;;;;;;;8.85;2.70;;;15.80;99.90;;;;;;5032029;28;20041;-76
2023/05/23 11:31:23;;;;;;;8.60;2.67;;;16.00;99.70;;;;;;5064591;28;20037;-76
2023/05/23 11:33:52;;;;;;;8.93;2.35;;;16.10;98.90;;;;;;5028031;28;20109;-75
2023/05/23 11:36:20;;;;;;;8.02;2.28;;;16.00;98.40;;;;;;5015666;28;20686;-75
2023/05/23 11:38:46;;;;;;;12.88;3.10;;;15.80;99.20;;;;;;5028529;28;20040;-75
2023/05/23 11:41:12;;;;;;;12.18;3.03;;;15.70;99.90;;;;;;5031797;28;20186;-75
2023/05/23 11:43:51;;;;;;;8.85;2.65;;;15.70;99.90;;;;;;5064329;28;20540;-76
2023/05/23 11:46:17;;;;;;;10.63;2.35;;;15.60;99.90;;;;;;5029729;28;20558;-75
2023/05/23 11:48:46;;;;;;;12.60;3.20;;;15.80;99.90;;;;;;5029254;28;20434;-76
2023/05/23 11:51:13;;;;;;;10.13;2.80;;;16.40;99.90;;;;;;5064041;28;20045;-75
2023/05/23 11:53:39;;;;;;;13.93;2.95;;;16.50;99.70;;;;;;5030885;28;20049;-75
2023/05/23 11:56:05;;;;;;;12.23;3.00;;;16.40;99.90;;;;;;5031300;28;20519;-76
2023/05/23 11:58:34;;;;;;;13.10;3.05;;;16.00;99.90;;;;;;5061436;28;20127;-76
2023/05/23 12:01:05;;;;;;;16.95;3.58;;;15.80;99.90;;;;;;5063638;28;20302;-75
2023/05/23 12:03:33;;;;;;;14.25;3.58;;;15.50;99.90;;;;;;5025638;28;20435;-74
2023/05/23 12:05:58;;;;;;;11.38;3.25;;;15.10;99.90;;;;;;5046206;28;20048;-75
2023/05/23 12:08:24;;;;;;;14.30;3.28;;;15.00;99.90;;;;;;5030187;28;20052;-75
2023/05/23 12:10:57;;;;;;;13.75;2.90;;;14.90;99.90;;;;;;5029377;28;20029;-76
2023/05/23 12:13:28;;;;;;;13.93;2.38;;;15.20;99.90;;;;;;5064014;28;20504;-76
2023/05/23 12:15:58;;;;;;;12.45;3.00;;;15.70;99.90;;;;;;5027694;28;20055;-76
2023/05/23 12:18:28;;;;;;;13.35;2.53;;;16.00;99.90;;;;;;5029237;28;20415;-75
2023/05/23 12:20:58;;;;;;;14.77;2.72;;;16.00;99.40;;;;;;5030405;28;20043;-75
2023/05/23 12:23:25;;;;;;;9.32;2.55;;;16.00;99.20;;;;;;5030948;28;20535;-76
2023/05/23 12:25:52;;;;;;;12.18;2.40;;;16.00;98.80;;;;;;5031243;28;20090;-76
2023/05/23 12:28:19;;;;;;;11.25;2.97;;;16.30;99.10;;;;;;5030836;28;20543;-76
2023/05/23 12:30:45;;;;;;;13.35;2.45;;;16.70;99.70;;;;;;5032314;28;20049;-76
2023/05/23 12:33:11;;;;;;;11.25;2.78;;;16.70;98.70;;;;;;5030143;28;20041;-76
2023/05/23 12:35:37;;;;;;;10.50;2.22;;;16.70;98.60;;;;;;5016007;28;20037;-77
2023/05/23 12:38:08;;;;;;;9.93;2.28;;;16.70;98.70;;;;;;5031567;28;20045;-76